Accueil
METAR-TAF:

METAR-TAF

Aéroports :

Koumac, Nouvelle-Calédonie

Aérodrome de Koumac

latitude: 20-34S, longitude: 164-17E, altitude: 23 m

METAR: absent

Heure: 09:34 (22:34 UTC)

Prévision

Le bulletin a été fait il y a 5 heures et 34 minutes, à 17:00 UTC
Prévision valable du 23 à 18 UTC au 24 à 18 UTC
Vent 5 kt de nord-est
Visibilité 10 km ou plus
Quelques nuages à une hauteur de 2000 ft
Probabilité 40% :
Temporairement
du 23 à 18 UTC au 23 à 20 UTC
Visibilité: 4000 m
brume
Evoluant progressivement
du 23 à 22 UTC au 23 à 24 UTC
Vent 14 kt de sud
Probabilité 40% :
Temporairement
du 24 à 00 UTC au 24 à 06 UTC
Quelques nuages à une hauteur de 2000 ft, Cumulus congestus.

TAF: NWWK 231700Z 2318/2418 05005KT 9999 FEW020 PROB40 TEMPO 2318/2320 4000 BR BECMG 2322/2324 18014KT PROB40 TEMPO 2400/2406 FEW020TCU

Observations et prévisions météorologiques de plus de 4000 aéroports (messages METAR et TAF).

Les stations disponibles sont représentées par des disques jaunes et rouges sur la carte.

Passer la souris dessus pour voir le nom de la station.

Cliquer dessus pour voir les observations et prévisions météorologiques.

Pour changer de carte: cliquez sur les boutons verts avec une croix noire pour zoomer, sur le bouton vert avec un tiret pour effectuer un zoom arrière, ou sur les flèches vertes pour les cartes adjacentes.


METAR-TAF: